sensor_id;sensor_type;location;lat;lon;timestamp;P1;durP1;ratioP1;P2;durP2;ratioP2
41689;SDS011;27372;42.658;23.256;2023-04-03T00:01:36;5.35;;;1.60;;
41689;SDS011;27372;42.658;23.256;2023-04-03T00:04:03;4.88;;;1.52;;
41689;SDS011;27372;42.658;23.256;2023-04-03T00:06:30;2.20;;;1.50;;
41689;SDS011;27372;42.658;23.256;2023-04-03T00:08:57;2.22;;;1.70;;
41689;SDS011;27372;42.658;23.256;2023-04-03T00:11:23;3.15;;;1.65;;
41689;SDS011;27372;42.658;23.256;2023-04-03T00:13:48;1.63;;;1.40;;
41689;SDS011;27372;42.658;23.256;2023-04-03T00:16:14;1.85;;;1.42;;
41689;SDS011;27372;42.658;23.256;2023-04-03T00:18:40;2.28;;;1.77;;
41689;SDS011;27372;42.658;23.256;2023-04-03T00:21:05;3.00;;;1.80;;
41689;SDS011;27372;42.658;23.256;2023-04-03T00:23:31;2.20;;;1.60;;
41689;SDS011;27372;42.658;23.256;2023-04-03T00:25:57;2.08;;;1.60;;
41689;SDS011;27372;42.658;23.256;2023-04-03T00:28:23;1.70;;;1.40;;
41689;SDS011;27372;42.658;23.256;2023-04-03T00:30:49;1.60;;;1.50;;
41689;SDS011;27372;42.658;23.256;2023-04-03T00:33:15;3.20;;;1.35;;
41689;SDS011;27372;42.658;23.256;2023-04-03T00:35:41;5.47;;;1.40;;
41689;SDS011;27372;42.658;23.256;2023-04-03T00:38:06;3.15;;;1.67;;
41689;SDS011;27372;42.658;23.256;2023-04-03T00:40:36;1.67;;;1.45;;
41689;SDS011;27372;42.658;23.256;2023-04-03T00:43:08;2.03;;;1.40;;
41689;SDS011;27372;42.658;23.256;2023-04-03T00:45:38;2.08;;;1.45;;
41689;SDS011;27372;42.658;23.256;2023-04-03T00:48:07;1.88;;;1.40;;
41689;SDS011;27372;42.658;23.256;2023-04-03T00:50:36;2.08;;;1.40;;
41689;SDS011;27372;42.658;23.256;2023-04-03T00:53:04;1.83;;;1.38;;
41689;SDS011;27372;42.658;23.256;2023-04-03T00:55:36;2.08;;;1.30;;
41689;SDS011;27372;42.658;23.256;2023-04-03T00:58:02;2.40;;;1.50;;
41689;SDS011;27372;42.658;23.256;2023-04-03T01:00:30;2.47;;;1.48;;
41689;SDS011;27372;42.658;23.256;2023-04-03T01:02:55;1.50;;;1.40;;
41689;SDS011;27372;42.658;23.256;2023-04-03T01:05:21;1.58;;;1.42;;
41689;SDS011;27372;42.658;23.256;2023-04-03T01:07:47;1.58;;;1.40;;
41689;SDS011;27372;42.658;23.256;2023-04-03T01:10:22;1.90;;;1.58;;
41689;SDS011;27372;42.658;23.256;2023-04-03T01:12:50;1.50;;;1.33;;
41689;SDS011;27372;42.658;23.256;2023-04-03T01:15:24;1.60;;;1.50;;
41689;SDS011;27372;42.658;23.256;2023-04-03T01:25:39;1.52;;;1.40;;
41689;SDS011;27372;42.658;23.256;2023-04-03T01:28:09;2.70;;;1.80;;
41689;SDS011;27372;42.658;23.256;2023-04-03T01:30:39;5.25;;;1.80;;
41689;SDS011;27372;42.658;23.256;2023-04-03T01:33:10;2.55;;;1.70;;
41689;SDS011;27372;42.658;23.256;2023-04-03T01:35:37;1.90;;;1.70;;
41689;SDS011;27372;42.658;23.256;2023-04-03T01:38:02;1.50;;;1.35;;
41689;SDS011;27372;42.658;23.256;2023-04-03T01:40:28;1.58;;;1.48;;
41689;SDS011;27372;42.658;23.256;2023-04-03T01:42:54;1.80;;;1.40;;
41689;SDS011;27372;42.658;23.256;2023-04-03T01:45:20;22.25;;;10.65;;
41689;SDS011;27372;42.658;23.256;2023-04-03T01:47:46;83.97;;;35.83;;
41689;SDS011;27372;42.658;23.256;2023-04-03T01:50:11;33.30;;;14.93;;
41689;SDS011;27372;42.658;23.256;2023-04-03T01:52:37;16.90;;;7.68;;
41689;SDS011;27372;42.658;23.256;2023-04-03T01:55:02;44.33;;;22.13;;
41689;SDS011;27372;42.658;23.256;2023-04-03T01:57:28;5.30;;;3.00;;
41689;SDS011;27372;42.658;23.256;2023-04-03T01:59:56;2.77;;;1.63;;
41689;SDS011;27372;42.658;23.256;2023-04-03T02:02:22;4.18;;;2.60;;
41689;SDS011;27372;42.658;23.256;2023-04-03T02:04:53;2.47;;;1.90;;
41689;SDS011;27372;42.658;23.256;2023-04-03T02:07:19;3.95;;;1.60;;
41689;SDS011;27372;42.658;23.256;2023-04-03T02:09:45;1.75;;;1.60;;
41689;SDS011;27372;42.658;23.256;2023-04-03T02:12:10;2.15;;;1.58;;
41689;SDS011;27372;42.658;23.256;2023-04-03T02:14:36;2.03;;;1.58;;
41689;SDS011;27372;42.658;23.256;2023-04-03T02:17:02;2.33;;;1.73;;
41689;SDS011;27372;42.658;23.256;2023-04-03T02:19:33;2.50;;;1.90;;
41689;SDS011;27372;42.658;23.256;2023-04-03T02:22:00;2.42;;;1.60;;
41689;SDS011;27372;42.658;23.256;2023-04-03T02:24:25;2.95;;;1.90;;
41689;SDS011;27372;42.658;23.256;2023-04-03T02:26:51;2.17;;;1.65;;
41689;SDS011;27372;42.658;23.256;2023-04-03T02:29:17;2.92;;;1.83;;
41689;SDS011;27372;42.658;23.256;2023-04-03T02:31:42;2.95;;;2.08;;
41689;SDS011;27372;42.658;23.256;2023-04-03T02:34:07;3.83;;;2.92;;
41689;SDS011;27372;42.658;23.256;2023-04-03T02:36:33;2.38;;;1.52;;
41689;SDS011;27372;42.658;23.256;2023-04-03T02:38:58;6.97;;;3.83;;
41689;SDS011;27372;42.658;23.256;2023-04-03T02:41:24;5.47;;;3.33;;
41689;SDS011;27372;42.658;23.256;2023-04-03T02:43:52;8.75;;;4.57;;
41689;SDS011;27372;42.658;23.256;2023-04-03T02:46:19;9.82;;;6.35;;
41689;SDS011;27372;42.658;23.256;2023-04-03T02:48:46;7.45;;;5.22;;
41689;SDS011;27372;42.658;23.256;2023-04-03T02:51:11;5.13;;;3.47;;
41689;SDS011;27372;42.658;23.256;2023-04-03T02:53:37;2.10;;;1.67;;
41689;SDS011;27372;42.658;23.256;2023-04-03T02:56:02;3.58;;;1.77;;
41689;SDS011;27372;42.658;23.256;2023-04-03T02:58:29;4.00;;;1.80;;
41689;SDS011;27372;42.658;23.256;2023-04-03T03:00:54;8.15;;;6.07;;
41689;SDS011;27372;42.658;23.256;2023-04-03T03:03:20;9.20;;;4.38;;
41689;SDS011;27372;42.658;23.256;2023-04-03T03:05:45;8.90;;;6.82;;
41689;SDS011;27372;42.658;23.256;2023-04-03T03:08:13;4.45;;;3.70;;
41689;SDS011;27372;42.658;23.256;2023-04-03T03:10:38;3.42;;;2.30;;
41689;SDS011;27372;42.658;23.256;2023-04-03T03:13:04;2.55;;;1.92;;
41689;SDS011;27372;42.658;23.256;2023-04-03T03:15:29;1.63;;;1.50;;
41689;SDS011;27372;42.658;23.256;2023-04-03T03:17:55;1.92;;;1.60;;
41689;SDS011;27372;42.658;23.256;2023-04-03T03:20:20;2.00;;;1.83;;
41689;SDS011;27372;42.658;23.256;2023-04-03T03:22:47;2.90;;;1.77;;
41689;SDS011;27372;42.658;23.256;2023-04-03T03:25:13;4.85;;;3.78;;
41689;SDS011;27372;42.658;23.256;2023-04-03T03:27:38;2.88;;;1.85;;
41689;SDS011;27372;42.658;23.256;2023-04-03T03:30:04;2.03;;;1.70;;
41689;SDS011;27372;42.658;23.256;2023-04-03T03:32:30;2.10;;;1.80;;
41689;SDS011;27372;42.658;23.256;2023-04-03T03:34:55;3.60;;;2.00;;
41689;SDS011;27372;42.658;23.256;2023-04-03T03:37:20;3.20;;;1.92;;
41689;SDS011;27372;42.658;23.256;2023-04-03T03:39:46;1.90;;;1.65;;
41689;SDS011;27372;42.658;23.256;2023-04-03T03:42:11;3.47;;;1.85;;
41689;SDS011;27372;42.658;23.256;2023-04-03T03:44:37;3.28;;;1.83;;
41689;SDS011;27372;42.658;23.256;2023-04-03T03:47:03;2.78;;;1.90;;
41689;SDS011;27372;42.658;23.256;2023-04-03T03:49:30;2.40;;;1.73;;
41689;SDS011;27372;42.658;23.256;2023-04-03T03:51:56;5.57;;;2.00;;
41689;SDS011;27372;42.658;23.256;2023-04-03T03:54:21;2.22;;;1.88;;
41689;SDS011;27372;42.658;23.256;2023-04-03T03:56:47;3.40;;;2.22;;
41689;SDS011;27372;42.658;23.256;2023-04-03T03:59:12;2.80;;;2.10;;
41689;SDS011;27372;42.658;23.256;2023-04-03T04:01:40;4.05;;;2.42;;
41689;SDS011;27372;42.658;23.256;2023-04-03T04:04:05;3.80;;;2.45;;
41689;SDS011;27372;42.658;23.256;2023-04-03T04:06:31;3.22;;;2.38;;
41689;SDS011;27372;42.658;23.256;2023-04-03T04:08:56;7.10;;;2.63;;
41689;SDS011;27372;42.658;23.256;2023-04-03T04:11:21;3.42;;;2.50;;
41689;SDS011;27372;42.658;23.256;2023-04-03T04:13:47;4.20;;;2.60;;
41689;SDS011;27372;42.658;23.256;2023-04-03T04:16:12;4.05;;;2.80;;
41689;SDS011;27372;42.658;23.256;2023-04-03T04:18:38;4.65;;;3.10;;
41689;SDS011;27372;42.658;23.256;2023-04-03T04:21:03;5.05;;;3.17;;
41689;SDS011;27372;42.658;23.256;2023-04-03T04:23:28;4.03;;;2.67;;
41689;SDS011;27372;42.658;23.256;2023-04-03T04:25:54;9.43;;;3.30;;
41689;SDS011;27372;42.658;23.256;2023-04-03T04:28:20;9.43;;;2.88;;
41689;SDS011;27372;42.658;23.256;2023-04-03T04:30:45;4.07;;;2.92;;
41689;SDS011;27372;42.658;23.256;2023-04-03T04:33:11;3.75;;;3.10;;
41689;SDS011;27372;42.658;23.256;2023-04-03T04:35:36;6.22;;;3.20;;
41689;SDS011;27372;42.658;23.256;2023-04-03T04:38:02;5.43;;;3.83;;
41689;SDS011;27372;42.658;23.256;2023-04-03T04:40:28;4.00;;;3.35;;
41689;SDS011;27372;42.658;23.256;2023-04-03T04:42:54;4.82;;;3.50;;
41689;SDS011;27372;42.658;23.256;2023-04-03T04:45:20;5.13;;;3.40;;
41689;SDS011;27372;42.658;23.256;2023-04-03T04:47:45;6.15;;;4.03;;
41689;SDS011;27372;42.658;23.256;2023-04-03T04:50:11;8.60;;;4.07;;
41689;SDS011;27372;42.658;23.256;2023-04-03T04:52:36;9.80;;;4.07;;
41689;SDS011;27372;42.658;23.256;2023-04-03T04:55:02;4.15;;;3.03;;
41689;SDS011;27372;42.658;23.256;2023-04-03T04:57:28;3.50;;;2.85;;
41689;SDS011;27372;42.658;23.256;2023-04-03T04:59:54;4.57;;;3.08;;
41689;SDS011;27372;42.658;23.256;2023-04-03T05:02:19;5.78;;;2.60;;
41689;SDS011;27372;42.658;23.256;2023-04-03T05:04:44;3.65;;;2.20;;
41689;SDS011;27372;42.658;23.256;2023-04-03T05:07:10;3.38;;;2.55;;
41689;SDS011;27372;42.658;23.256;2023-04-03T05:09:35;5.00;;;3.15;;
41689;SDS011;27372;42.658;23.256;2023-04-03T05:12:01;5.53;;;2.80;;
41689;SDS011;27372;42.658;23.256;2023-04-03T05:14:27;2.05;;;1.85;;
41689;SDS011;27372;42.658;23.256;2023-04-03T05:16:53;8.77;;;2.30;;
41689;SDS011;27372;42.658;23.256;2023-04-03T05:19:19;4.40;;;2.15;;
41689;SDS011;27372;42.658;23.256;2023-04-03T05:21:47;4.65;;;2.45;;
41689;SDS011;27372;42.658;23.256;2023-04-03T05:24:13;2.20;;;2.00;;
41689;SDS011;27372;42.658;23.256;2023-04-03T05:26:39;4.70;;;2.55;;
41689;SDS011;27372;42.658;23.256;2023-04-03T05:29:05;7.68;;;2.47;;
41689;SDS011;27372;42.658;23.256;2023-04-03T05:31:31;10.63;;;4.03;;
41689;SDS011;27372;42.658;23.256;2023-04-03T05:33:56;27.92;;;12.55;;
41689;SDS011;27372;42.658;23.256;2023-04-03T05:36:22;28.10;;;15.30;;
41689;SDS011;27372;42.658;23.256;2023-04-03T05:38:48;29.88;;;13.88;;
41689;SDS011;27372;42.658;23.256;2023-04-03T05:41:14;25.63;;;11.90;;
41689;SDS011;27372;42.658;23.256;2023-04-03T05:43:40;20.42;;;10.85;;
41689;SDS011;27372;42.658;23.256;2023-04-03T05:46:16;19.65;;;10.48;;
41689;SDS011;27372;42.658;23.256;2023-04-03T05:48:43;25.80;;;11.20;;
41689;SDS011;27372;42.658;23.256;2023-04-03T05:51:17;21.05;;;11.90;;
41689;SDS011;27372;42.658;23.256;2023-04-03T05:53:44;24.73;;;10.77;;
41689;SDS011;27372;42.658;23.256;2023-04-03T05:56:11;24.92;;;11.05;;
41689;SDS011;27372;42.658;23.256;2023-04-03T05:58:37;26.70;;;10.90;;
41689;SDS011;27372;42.658;23.256;2023-04-03T06:01:02;27.48;;;11.32;;
41689;SDS011;27372;42.658;23.256;2023-04-03T06:03:28;22.90;;;11.15;;
41689;SDS011;27372;42.658;23.256;2023-04-03T06:05:53;18.88;;;9.65;;
41689;SDS011;27372;42.658;23.256;2023-04-03T06:08:22;17.45;;;9.23;;
41689;SDS011;27372;42.658;23.256;2023-04-03T06:10:48;24.27;;;11.40;;
41689;SDS011;27372;42.658;23.256;2023-04-03T06:13:15;28.70;;;13.18;;
41689;SDS011;27372;42.658;23.256;2023-04-03T06:15:41;29.45;;;12.15;;
41689;SDS011;27372;42.658;23.256;2023-04-03T06:18:06;22.58;;;10.38;;
41689;SDS011;27372;42.658;23.256;2023-04-03T06:20:31;17.98;;;10.07;;
41689;SDS011;27372;42.658;23.256;2023-04-03T06:22:57;27.67;;;12.18;;
41689;SDS011;27372;42.658;23.256;2023-04-03T06:25:23;57.35;;;20.00;;
41689;SDS011;27372;42.658;23.256;2023-04-03T06:27:48;34.90;;;17.05;;
41689;SDS011;27372;42.658;23.256;2023-04-03T06:30:14;35.78;;;15.82;;
41689;SDS011;27372;42.658;23.256;2023-04-03T06:32:39;25.42;;;13.50;;
41689;SDS011;27372;42.658;23.256;2023-04-03T06:35:05;21.13;;;11.20;;
41689;SDS011;27372;42.658;23.256;2023-04-03T06:37:31;26.20;;;11.25;;
41689;SDS011;27372;42.658;23.256;2023-04-03T06:39:57;24.38;;;10.90;;
41689;SDS011;27372;42.658;23.256;2023-04-03T06:42:23;25.35;;;10.73;;
41689;SDS011;27372;42.658;23.256;2023-04-03T06:44:48;28.95;;;10.48;;
41689;SDS011;27372;42.658;23.256;2023-04-03T06:47:16;20.60;;;8.82;;
41689;SDS011;27372;42.658;23.256;2023-04-03T06:49:42;17.85;;;9.40;;
41689;SDS011;27372;42.658;23.256;2023-04-03T06:52:09;16.63;;;7.82;;
41689;SDS011;27372;42.658;23.256;2023-04-03T06:54:35;10.65;;;5.75;;
41689;SDS011;27372;42.658;23.256;2023-04-03T06:57:01;14.93;;;7.70;;
41689;SDS011;27372;42.658;23.256;2023-04-03T06:59:30;13.38;;;6.38;;
41689;SDS011;27372;42.658;23.256;2023-04-03T07:01:55;14.75;;;6.78;;
41689;SDS011;27372;42.658;23.256;2023-04-03T07:04:21;11.63;;;5.90;;
41689;SDS011;27372;42.658;23.256;2023-04-03T07:06:46;11.43;;;5.50;;
41689;SDS011;27372;42.658;23.256;2023-04-03T07:09:13;13.15;;;5.40;;
41689;SDS011;27372;42.658;23.256;2023-04-03T07:11:39;10.18;;;4.57;;
41689;SDS011;27372;42.658;23.256;2023-04-03T07:14:05;9.43;;;4.85;;
41689;SDS011;27372;42.658;23.256;2023-04-03T07:16:32;11.88;;;4.78;;
41689;SDS011;27372;42.658;23.256;2023-04-03T07:18:59;8.50;;;4.85;;
41689;SDS011;27372;42.658;23.256;2023-04-03T07:21:24;6.80;;;3.72;;
41689;SDS011;27372;42.658;23.256;2023-04-03T07:23:51;7.30;;;4.13;;
41689;SDS011;27372;42.658;23.256;2023-04-03T07:26:16;8.48;;;4.25;;
41689;SDS011;27372;42.658;23.256;2023-04-03T07:28:42;7.63;;;4.18;;
41689;SDS011;27372;42.658;23.256;2023-04-03T07:31:11;9.88;;;4.38;;
41689;SDS011;27372;42.658;23.256;2023-04-03T07:33:41;11.70;;;4.78;;
41689;SDS011;27372;42.658;23.256;2023-04-03T07:36:09;8.18;;;3.97;;
41689;SDS011;27372;42.658;23.256;2023-04-03T07:38:35;5.15;;;3.50;;
41689;SDS011;27372;42.658;23.256;2023-04-03T07:41:02;7.00;;;3.75;;
41689;SDS011;27372;42.658;23.256;2023-04-03T07:43:28;8.18;;;4.50;;
41689;SDS011;27372;42.658;23.256;2023-04-03T07:45:53;9.57;;;4.40;;
41689;SDS011;27372;42.658;23.256;2023-04-03T07:48:22;6.57;;;4.13;;
41689;SDS011;27372;42.658;23.256;2023-04-03T07:50:49;6.93;;;3.63;;
41689;SDS011;27372;42.658;23.256;2023-04-03T07:53:15;7.95;;;3.80;;
41689;SDS011;27372;42.658;23.256;2023-04-03T07:55:42;8.07;;;4.30;;
41689;SDS011;27372;42.658;23.256;2023-04-03T07:58:11;7.72;;;4.55;;
41689;SDS011;27372;42.658;23.256;2023-04-03T08:00:38;8.43;;;4.70;;
41689;SDS011;27372;42.658;23.256;2023-04-03T08:03:04;12.10;;;5.80;;
41689;SDS011;27372;42.658;23.256;2023-04-03T08:05:30;11.70;;;6.53;;
41689;SDS011;27372;42.658;23.256;2023-04-03T08:07:56;13.88;;;6.05;;
41689;SDS011;27372;42.658;23.256;2023-04-03T08:10:21;8.30;;;4.95;;
41689;SDS011;27372;42.658;23.256;2023-04-03T08:12:47;11.70;;;5.72;;
41689;SDS011;27372;42.658;23.256;2023-04-03T08:15:12;10.45;;;5.72;;
41689;SDS011;27372;42.658;23.256;2023-04-03T08:17:38;11.35;;;5.90;;
41689;SDS011;27372;42.658;23.256;2023-04-03T08:20:04;10.93;;;4.05;;
41689;SDS011;27372;42.658;23.256;2023-04-03T08:22:31;8.25;;;4.28;;
41689;SDS011;27372;42.658;23.256;2023-04-03T08:24:57;12.85;;;4.55;;
41689;SDS011;27372;42.658;23.256;2023-04-03T08:27:23;11.98;;;4.45;;
41689;SDS011;27372;42.658;23.256;2023-04-03T08:29:48;9.73;;;4.63;;
41689;SDS011;27372;42.658;23.256;2023-04-03T08:32:14;15.30;;;6.45;;
41689;SDS011;27372;42.658;23.256;2023-04-03T08:34:39;8.00;;;4.88;;
41689;SDS011;27372;42.658;23.256;2023-04-03T08:37:05;18.85;;;5.88;;
41689;SDS011;27372;42.658;23.256;2023-04-03T08:39:31;9.05;;;4.70;;
41689;SDS011;27372;42.658;23.256;2023-04-03T08:41:57;12.88;;;5.85;;
41689;SDS011;27372;42.658;23.256;2023-04-03T08:49:47;16.67;;;8.07;;
41689;SDS011;27372;42.658;23.256;2023-04-03T08:52:36;16.25;;;7.90;;
41689;SDS011;27372;42.658;23.256;2023-04-03T08:55:06;22.00;;;12.35;;
41689;SDS011;27372;42.658;23.256;2023-04-03T08:57:43;18.10;;;8.73;;
41689;SDS011;27372;42.658;23.256;2023-04-03T09:02:43;18.85;;;9.15;;
41689;SDS011;27372;42.658;23.256;2023-04-03T09:05:12;17.45;;;8.85;;
41689;SDS011;27372;42.658;23.256;2023-04-03T09:07:42;17.75;;;9.30;;
41689;SDS011;27372;42.658;23.256;2023-04-03T09:10:15;29.27;;;10.95;;
41689;SDS011;27372;42.658;23.256;2023-04-03T09:16:04;26.77;;;13.05;;
41689;SDS011;27372;42.658;23.256;2023-04-03T09:22:23;18.15;;;10.57;;
41689;SDS011;27372;42.658;23.256;2023-04-03T09:25:01;35.33;;;12.32;;
41689;SDS011;27372;42.658;23.256;2023-04-03T09:27:32;21.98;;;10.70;;
41689;SDS011;27372;42.658;23.256;2023-04-03T09:29:58;22.08;;;12.02;;
41689;SDS011;27372;42.658;23.256;2023-04-03T09:32:31;19.60;;;10.02;;
41689;SDS011;27372;42.658;23.256;2023-04-03T09:35:16;15.40;;;7.75;;
41689;SDS011;27372;42.658;23.256;2023-04-03T09:37:47;17.43;;;8.40;;
41689;SDS011;27372;42.658;23.256;2023-04-03T09:42:56;6.82;;;3.78;;
41689;SDS011;27372;42.658;23.256;2023-04-03T09:45:33;7.85;;;3.42;;
41689;SDS011;27372;42.658;23.256;2023-04-03T09:51:00;5.85;;;2.42;;
41689;SDS011;27372;42.658;23.256;2023-04-03T09:56:04;4.80;;;2.70;;
41689;SDS011;27372;42.658;23.256;2023-04-03T10:01:25;3.45;;;2.10;;
41689;SDS011;27372;42.658;23.256;2023-04-03T10:06:43;4.88;;;2.38;;
41689;SDS011;27372;42.658;23.256;2023-04-03T10:11:58;6.45;;;2.70;;
41689;SDS011;27372;42.658;23.256;2023-04-03T10:14:26;6.30;;;1.80;;
41689;SDS011;27372;42.658;23.256;2023-04-03T10:19:57;4.20;;;1.80;;
41689;SDS011;27372;42.658;23.256;2023-04-03T10:25:24;8.45;;;2.30;;
41689;SDS011;27372;42.658;23.256;2023-04-03T10:28:02;3.53;;;1.83;;
41689;SDS011;27372;42.658;23.256;2023-04-03T10:39:20;5.43;;;2.25;;
41689;SDS011;27372;42.658;23.256;2023-04-03T10:47:40;5.30;;;2.20;;
41689;SDS011;27372;42.658;23.256;2023-04-03T10:55:14;4.30;;;2.25;;
41689;SDS011;27372;42.658;23.256;2023-04-03T10:57:50;5.43;;;2.50;;
41689;SDS011;27372;42.658;23.256;2023-04-03T11:00:16;5.72;;;2.40;;
41689;SDS011;27372;42.658;23.256;2023-04-03T11:05:31;5.07;;;3.20;;
41689;SDS011;27372;42.658;23.256;2023-04-03T11:08:10;4.43;;;2.00;;
41689;SDS011;27372;42.658;23.256;2023-04-03T11:10:45;6.22;;;2.17;;
41689;SDS011;27372;42.658;23.256;2023-04-03T11:13:22;3.95;;;2.45;;
41689;SDS011;27372;42.658;23.256;2023-04-03T11:15:58;4.22;;;2.05;;
41689;SDS011;27372;42.658;23.256;2023-04-03T11:20:58;5.55;;;2.72;;
41689;SDS011;27372;42.658;23.256;2023-04-03T11:23:31;3.72;;;2.85;;
41689;SDS011;27372;42.658;23.256;2023-04-03T11:26:11;3.95;;;2.85;;
41689;SDS011;27372;42.658;23.256;2023-04-03T11:29:09;7.40;;;3.58;;
41689;SDS011;27372;42.658;23.256;2023-04-03T11:31:48;6.68;;;4.35;;
41689;SDS011;27372;42.658;23.256;2023-04-03T11:34:31;7.45;;;4.13;;
41689;SDS011;27372;42.658;23.256;2023-04-03T11:37:01;7.10;;;3.65;;
41689;SDS011;27372;42.658;23.256;2023-04-03T11:39:36;5.53;;;3.60;;
41689;SDS011;27372;42.658;23.256;2023-04-03T11:42:24;5.85;;;3.40;;
41689;SDS011;27372;42.658;23.256;2023-04-03T11:47:52;7.15;;;4.00;;
41689;SDS011;27372;42.658;23.256;2023-04-03T11:50:42;7.65;;;4.30;;
41689;SDS011;27372;42.658;23.256;2023-04-03T11:53:26;5.35;;;3.88;;
41689;SDS011;27372;42.658;23.256;2023-04-03T12:04:14;13.07;;;4.88;;
41689;SDS011;27372;42.658;23.256;2023-04-03T12:06:50;9.57;;;5.10;;
41689;SDS011;27372;42.658;23.256;2023-04-03T12:15:41;9.38;;;4.78;;
41689;SDS011;27372;42.658;23.256;2023-04-03T12:21:13;9.55;;;5.40;;
41689;SDS011;27372;42.658;23.256;2023-04-03T12:29:41;7.72;;;4.28;;
41689;SDS011;27372;42.658;23.256;2023-04-03T12:35:37;8.90;;;4.30;;
41689;SDS011;27372;42.658;23.256;2023-04-03T12:41:50;6.38;;;4.50;;
41689;SDS011;27372;42.658;23.256;2023-04-03T12:47:24;10.70;;;6.90;;
41689;SDS011;27372;42.658;23.256;2023-04-03T12:50:02;9.40;;;6.35;;
41689;SDS011;27372;42.658;23.256;2023-04-03T12:52:44;8.77;;;6.13;;
41689;SDS011;27372;42.658;23.256;2023-04-03T12:55:35;7.90;;;5.03;;
41689;SDS011;27372;42.658;23.256;2023-04-03T13:03:49;6.40;;;4.10;;
41689;SDS011;27372;42.658;23.256;2023-04-03T13:06:26;6.45;;;4.72;;
41689;SDS011;27372;42.658;23.256;2023-04-03T13:08:59;10.18;;;4.90;;
41689;SDS011;27372;42.658;23.256;2023-04-03T13:11:28;10.05;;;5.40;;
41689;SDS011;27372;42.658;23.256;2023-04-03T13:14:02;7.47;;;5.43;;
41689;SDS011;27372;42.658;23.256;2023-04-03T13:16:30;8.57;;;5.88;;
41689;SDS011;27372;42.658;23.256;2023-04-03T13:19:25;7.28;;;5.25;;
41689;SDS011;27372;42.658;23.256;2023-04-03T13:21:58;7.70;;;5.47;;
41689;SDS011;27372;42.658;23.256;2023-04-03T13:24:38;8.50;;;5.35;;
41689;SDS011;27372;42.658;23.256;2023-04-03T13:27:05;10.07;;;5.53;;
41689;SDS011;27372;42.658;23.256;2023-04-03T13:29:32;6.72;;;5.03;;
41689;SDS011;27372;42.658;23.256;2023-04-03T13:32:04;9.55;;;5.30;;
41689;SDS011;27372;42.658;23.256;2023-04-03T13:34:38;10.50;;;5.68;;
41689;SDS011;27372;42.658;23.256;2023-04-03T13:37:07;8.30;;;5.75;;
41689;SDS011;27372;42.658;23.256;2023-04-03T13:39:45;10.73;;;6.88;;
41689;SDS011;27372;42.658;23.256;2023-04-03T13:42:30;10.00;;;5.95;;
41689;SDS011;27372;42.658;23.256;2023-04-03T13:47:39;8.45;;;5.20;;
41689;SDS011;27372;42.658;23.256;2023-04-03T13:50:18;12.18;;;6.80;;
41689;SDS011;27372;42.658;23.256;2023-04-03T13:53:01;11.18;;;6.82;;
41689;SDS011;27372;42.658;23.256;2023-04-03T13:55:28;11.48;;;6.15;;
41689;SDS011;27372;42.658;23.256;2023-04-03T14:00:48;7.60;;;4.90;;
41689;SDS011;27372;42.658;23.256;2023-04-03T14:03:47;5.63;;;4.03;;
41689;SDS011;27372;42.658;23.256;2023-04-03T14:06:18;8.25;;;4.95;;
41689;SDS011;27372;42.658;23.256;2023-04-03T14:08:44;7.47;;;4.68;;
41689;SDS011;27372;42.658;23.256;2023-04-03T14:11:17;8.95;;;4.70;;
41689;SDS011;27372;42.658;23.256;2023-04-03T14:13:47;7.43;;;4.95;;
41689;SDS011;27372;42.658;23.256;2023-04-03T14:16:18;9.43;;;4.90;;
41689;SDS011;27372;42.658;23.256;2023-04-03T14:18:48;7.18;;;4.90;;
41689;SDS011;27372;42.658;23.256;2023-04-03T14:21:16;7.13;;;4.70;;
41689;SDS011;27372;42.658;23.256;2023-04-03T14:23:42;4.80;;;3.72;;
41689;SDS011;27372;42.658;23.256;2023-04-03T14:26:12;5.63;;;3.30;;
41689;SDS011;27372;42.658;23.256;2023-04-03T14:28:49;4.68;;;3.47;;
41689;SDS011;27372;42.658;23.256;2023-04-03T14:31:20;5.40;;;4.15;;
41689;SDS011;27372;42.658;23.256;2023-04-03T14:33:46;7.10;;;4.68;;
41689;SDS011;27372;42.658;23.256;2023-04-03T14:38:50;6.82;;;4.20;;
41689;SDS011;27372;42.658;23.256;2023-04-03T14:41:16;5.85;;;4.05;;
41689;SDS011;27372;42.658;23.256;2023-04-03T14:43:44;6.38;;;3.80;;
41689;SDS011;27372;42.658;23.256;2023-04-03T14:46:14;5.40;;;3.95;;
41689;SDS011;27372;42.658;23.256;2023-04-03T14:48:43;5.97;;;4.00;;
41689;SDS011;27372;42.658;23.256;2023-04-03T14:51:10;4.15;;;3.58;;
41689;SDS011;27372;42.658;23.256;2023-04-03T14:53:37;4.00;;;3.40;;
41689;SDS011;27372;42.658;23.256;2023-04-03T14:56:08;4.32;;;3.10;;
41689;SDS011;27372;42.658;23.256;2023-04-03T14:58:36;5.53;;;2.85;;
41689;SDS011;27372;42.658;23.256;2023-04-03T15:01:03;4.72;;;3.13;;
41689;SDS011;27372;42.658;23.256;2023-04-03T15:03:29;4.35;;;3.42;;
41689;SDS011;27372;42.658;23.256;2023-04-03T15:05:54;4.75;;;3.58;;
41689;SDS011;27372;42.658;23.256;2023-04-03T15:08:24;3.50;;;2.80;;
41689;SDS011;27372;42.658;23.256;2023-04-03T15:10:51;4.65;;;3.45;;
41689;SDS011;27372;42.658;23.256;2023-04-03T15:13:21;4.10;;;3.13;;
41689;SDS011;27372;42.658;23.256;2023-04-03T15:15:47;3.75;;;3.08;;
41689;SDS011;27372;42.658;23.256;2023-04-03T15:18:24;3.88;;;2.95;;
41689;SDS011;27372;42.658;23.256;2023-04-03T15:20:52;4.72;;;3.63;;
41689;SDS011;27372;42.658;23.256;2023-04-03T15:23:19;6.50;;;4.07;;
41689;SDS011;27372;42.658;23.256;2023-04-03T15:25:45;7.13;;;4.25;;
41689;SDS011;27372;42.658;23.256;2023-04-03T15:28:34;8.82;;;5.38;;
41689;SDS011;27372;42.658;23.256;2023-04-03T15:31:00;8.50;;;5.85;;
41689;SDS011;27372;42.658;23.256;2023-04-03T15:33:26;9.38;;;5.45;;
41689;SDS011;27372;42.658;23.256;2023-04-03T15:35:52;8.20;;;4.57;;
41689;SDS011;27372;42.658;23.256;2023-04-03T15:38:18;5.22;;;3.90;;
41689;SDS011;27372;42.658;23.256;2023-04-03T15:40:44;7.32;;;4.40;;
41689;SDS011;27372;42.658;23.256;2023-04-03T15:43:12;5.20;;;3.78;;
41689;SDS011;27372;42.658;23.256;2023-04-03T15:45:38;6.03;;;4.25;;
41689;SDS011;27372;42.658;23.256;2023-04-03T15:48:04;7.65;;;4.05;;
41689;SDS011;27372;42.658;23.256;2023-04-03T15:50:31;5.40;;;4.60;;
41689;SDS011;27372;42.658;23.256;2023-04-03T15:52:57;7.18;;;5.05;;
41689;SDS011;27372;42.658;23.256;2023-04-03T15:55:24;13.10;;;8.48;;
41689;SDS011;27372;42.658;23.256;2023-04-03T15:57:51;6.28;;;4.32;;
41689;SDS011;27372;42.658;23.256;2023-04-03T16:00:17;8.00;;;5.95;;
41689;SDS011;27372;42.658;23.256;2023-04-03T16:02:44;9.35;;;6.43;;
41689;SDS011;27372;42.658;23.256;2023-04-03T16:05:11;8.10;;;4.80;;
41689;SDS011;27372;42.658;23.256;2023-04-03T16:07:38;7.15;;;5.07;;
41689;SDS011;27372;42.658;23.256;2023-04-03T16:10:05;11.75;;;6.30;;
41689;SDS011;27372;42.658;23.256;2023-04-03T16:12:31;9.02;;;5.90;;
41689;SDS011;27372;42.658;23.256;2023-04-03T16:14:57;8.93;;;5.40;;
41689;SDS011;27372;42.658;23.256;2023-04-03T16:17:23;11.50;;;6.47;;
41689;SDS011;27372;42.658;23.256;2023-04-03T16:19:48;9.57;;;5.10;;
41689;SDS011;27372;42.658;23.256;2023-04-03T16:22:14;9.73;;;5.50;;
41689;SDS011;27372;42.658;23.256;2023-04-03T16:24:39;8.25;;;5.63;;
41689;SDS011;27372;42.658;23.256;2023-04-03T16:27:05;7.43;;;5.15;;
41689;SDS011;27372;42.658;23.256;2023-04-03T16:29:30;10.02;;;5.32;;
41689;SDS011;27372;42.658;23.256;2023-04-03T16:31:56;9.65;;;5.15;;
41689;SDS011;27372;42.658;23.256;2023-04-03T16:37:59;8.38;;;4.30;;
41689;SDS011;27372;42.658;23.256;2023-04-03T16:40:24;8.80;;;5.00;;
41689;SDS011;27372;42.658;23.256;2023-04-03T16:42:50;6.80;;;3.33;;